sensor_id;sensor_type;location;lat;lon;timestamp;P1;durP1;ratioP1;P2;durP2;ratioP2
30287;SDS011;17103;48.316;11.558;2022-08-18T00:01:20;5.18;;;4.68;;
30287;SDS011;17103;48.316;11.558;2022-08-18T00:03:48;7.03;;;5.20;;
30287;SDS011;17103;48.316;11.558;2022-08-18T00:06:15;7.22;;;5.15;;
30287;SDS011;17103;48.316;11.558;2022-08-18T00:08:41;5.25;;;4.20;;
30287;SDS011;17103;48.316;11.558;2022-08-18T00:11:07;4.93;;;4.43;;
30287;SDS011;17103;48.316;11.558;2022-08-18T00:13:33;5.60;;;4.70;;
30287;SDS011;17103;48.316;11.558;2022-08-18T00:15:59;6.50;;;4.50;;
30287;SDS011;17103;48.316;11.558;2022-08-18T00:18:25;6.35;;;4.78;;
30287;SDS011;17103;48.316;11.558;2022-08-18T00:20:51;5.82;;;4.47;;
30287;SDS011;17103;48.316;11.558;2022-08-18T00:23:17;5.95;;;4.03;;
30287;SDS011;17103;48.316;11.558;2022-08-18T00:25:43;6.18;;;4.07;;
30287;SDS011;17103;48.316;11.558;2022-08-18T00:28:09;4.70;;;4.03;;
30287;SDS011;17103;48.316;11.558;2022-08-18T00:30:37;5.47;;;3.72;;
30287;SDS011;17103;48.316;11.558;2022-08-18T00:33:02;4.47;;;3.80;;
30287;SDS011;17103;48.316;11.558;2022-08-18T00:35:32;4.50;;;3.88;;
30287;SDS011;17103;48.316;11.558;2022-08-18T00:38:01;5.35;;;3.60;;
30287;SDS011;17103;48.316;11.558;2022-08-18T00:40:35;4.57;;;4.18;;
30287;SDS011;17103;48.316;11.558;2022-08-18T00:43:15;6.30;;;5.00;;
30287;SDS011;17103;48.316;11.558;2022-08-18T00:45:45;6.07;;;4.40;;
30287;SDS011;17103;48.316;11.558;2022-08-18T00:48:11;5.10;;;4.25;;
30287;SDS011;17103;48.316;11.558;2022-08-18T00:50:39;4.95;;;4.55;;
30287;SDS011;17103;48.316;11.558;2022-08-18T00:53:23;6.10;;;4.40;;
30287;SDS011;17103;48.316;11.558;2022-08-18T00:58:22;5.10;;;4.53;;
30287;SDS011;17103;48.316;11.558;2022-08-18T01:00:52;7.53;;;4.78;;
30287;SDS011;17103;48.316;11.558;2022-08-18T01:03:19;6.15;;;4.60;;
30287;SDS011;17103;48.316;11.558;2022-08-18T01:05:52;5.82;;;4.47;;
30287;SDS011;17103;48.316;11.558;2022-08-18T01:08:23;4.75;;;4.22;;
30287;SDS011;17103;48.316;11.558;2022-08-18T01:10:50;4.80;;;3.72;;
30287;SDS011;17103;48.316;11.558;2022-08-18T01:13:16;5.43;;;4.15;;
30287;SDS011;17103;48.316;11.558;2022-08-18T01:15:43;4.78;;;3.97;;
30287;SDS011;17103;48.316;11.558;2022-08-18T01:18:09;4.40;;;3.97;;
30287;SDS011;17103;48.316;11.558;2022-08-18T01:24:15;4.80;;;3.88;;
30287;SDS011;17103;48.316;11.558;2022-08-18T01:26:42;4.78;;;3.72;;
30287;SDS011;17103;48.316;11.558;2022-08-18T01:29:13;4.60;;;4.13;;
30287;SDS011;17103;48.316;11.558;2022-08-18T01:31:44;4.97;;;3.92;;
30287;SDS011;17103;48.316;11.558;2022-08-18T01:34:19;5.75;;;4.68;;
30287;SDS011;17103;48.316;11.558;2022-08-18T01:36:47;5.95;;;4.57;;
30287;SDS011;17103;48.316;11.558;2022-08-18T01:39:16;6.82;;;5.00;;
30287;SDS011;17103;48.316;11.558;2022-08-18T01:41:42;4.50;;;4.00;;
30287;SDS011;17103;48.316;11.558;2022-08-18T01:44:09;4.63;;;4.13;;
30287;SDS011;17103;48.316;11.558;2022-08-18T01:46:36;7.45;;;4.78;;
30287;SDS011;17103;48.316;11.558;2022-08-18T01:49:04;6.38;;;4.38;;
30287;SDS011;17103;48.316;11.558;2022-08-18T01:51:31;6.32;;;4.60;;
30287;SDS011;17103;48.316;11.558;2022-08-18T01:53:59;5.00;;;4.50;;
30287;SDS011;17103;48.316;11.558;2022-08-18T01:56:25;5.53;;;4.57;;
30287;SDS011;17103;48.316;11.558;2022-08-18T01:58:51;7.55;;;5.07;;
30287;SDS011;17103;48.316;11.558;2022-08-18T02:01:18;5.22;;;4.30;;
30287;SDS011;17103;48.316;11.558;2022-08-18T02:03:46;5.35;;;4.85;;
30287;SDS011;17103;48.316;11.558;2022-08-18T02:06:15;6.30;;;5.38;;
30287;SDS011;17103;48.316;11.558;2022-08-18T02:08:43;6.70;;;5.00;;
30287;SDS011;17103;48.316;11.558;2022-08-18T02:11:10;5.57;;;4.63;;
30287;SDS011;17103;48.316;11.558;2022-08-18T02:13:36;6.53;;;5.15;;
30287;SDS011;17103;48.316;11.558;2022-08-18T02:16:02;8.23;;;4.55;;
30287;SDS011;17103;48.316;11.558;2022-08-18T02:18:30;5.20;;;4.70;;
30287;SDS011;17103;48.316;11.558;2022-08-18T02:20:57;5.32;;;4.15;;
30287;SDS011;17103;48.316;11.558;2022-08-18T02:23:29;5.50;;;4.93;;
30287;SDS011;17103;48.316;11.558;2022-08-18T02:25:55;7.15;;;5.22;;
30287;SDS011;17103;48.316;11.558;2022-08-18T02:28:20;6.22;;;4.75;;
30287;SDS011;17103;48.316;11.558;2022-08-18T02:30:46;4.70;;;4.30;;
30287;SDS011;17103;48.316;11.558;2022-08-18T02:33:11;5.50;;;4.63;;
30287;SDS011;17103;48.316;11.558;2022-08-18T02:35:37;5.90;;;5.07;;
30287;SDS011;17103;48.316;11.558;2022-08-18T02:38:04;4.78;;;4.35;;
30287;SDS011;17103;48.316;11.558;2022-08-18T02:40:30;7.07;;;4.80;;
30287;SDS011;17103;48.316;11.558;2022-08-18T02:43:03;6.30;;;5.70;;
30287;SDS011;17103;48.316;11.558;2022-08-18T02:47:56;6.28;;;4.57;;
30287;SDS011;17103;48.316;11.558;2022-08-18T02:50:22;4.85;;;4.35;;
30287;SDS011;17103;48.316;11.558;2022-08-18T02:52:49;6.65;;;5.38;;
30287;SDS011;17103;48.316;11.558;2022-08-18T02:55:14;5.45;;;4.60;;
30287;SDS011;17103;48.316;11.558;2022-08-18T02:57:42;6.85;;;4.40;;
30287;SDS011;17103;48.316;11.558;2022-08-18T03:00:10;5.45;;;4.82;;
30287;SDS011;17103;48.316;11.558;2022-08-18T03:02:47;5.32;;;4.82;;
30287;SDS011;17103;48.316;11.558;2022-08-18T03:05:15;5.20;;;4.35;;
30287;SDS011;17103;48.316;11.558;2022-08-18T03:07:44;6.25;;;5.40;;
30287;SDS011;17103;48.316;11.558;2022-08-18T03:10:11;8.43;;;4.55;;
30287;SDS011;17103;48.316;11.558;2022-08-18T03:12:40;4.88;;;4.13;;
30287;SDS011;17103;48.316;11.558;2022-08-18T03:15:07;4.80;;;4.32;;
30287;SDS011;17103;48.316;11.558;2022-08-18T03:17:34;5.30;;;4.63;;
30287;SDS011;17103;48.316;11.558;2022-08-18T03:20:02;4.90;;;4.50;;
30287;SDS011;17103;48.316;11.558;2022-08-18T03:22:28;5.40;;;4.60;;
30287;SDS011;17103;48.316;11.558;2022-08-18T03:24:54;5.78;;;4.78;;
30287;SDS011;17103;48.316;11.558;2022-08-18T03:27:20;6.65;;;5.13;;
30287;SDS011;17103;48.316;11.558;2022-08-18T03:29:45;5.22;;;4.72;;
30287;SDS011;17103;48.316;11.558;2022-08-18T03:32:11;6.38;;;4.97;;
30287;SDS011;17103;48.316;11.558;2022-08-18T03:34:36;6.55;;;5.22;;
30287;SDS011;17103;48.316;11.558;2022-08-18T03:37:03;5.18;;;4.65;;
30287;SDS011;17103;48.316;11.558;2022-08-18T03:39:29;8.15;;;4.80;;
30287;SDS011;17103;48.316;11.558;2022-08-18T03:41:55;6.78;;;4.32;;
30287;SDS011;17103;48.316;11.558;2022-08-18T03:44:22;6.95;;;6.03;;
30287;SDS011;17103;48.316;11.558;2022-08-18T03:46:48;5.70;;;4.93;;
30287;SDS011;17103;48.316;11.558;2022-08-18T03:49:14;6.82;;;5.30;;
30287;SDS011;17103;48.316;11.558;2022-08-18T03:51:43;6.30;;;5.70;;
30287;SDS011;17103;48.316;11.558;2022-08-18T03:54:10;5.75;;;4.38;;
30287;SDS011;17103;48.316;11.558;2022-08-18T03:56:38;5.60;;;5.03;;
30287;SDS011;17103;48.316;11.558;2022-08-18T03:59:07;5.30;;;4.78;;
30287;SDS011;17103;48.316;11.558;2022-08-18T04:01:40;5.65;;;5.05;;
30287;SDS011;17103;48.316;11.558;2022-08-18T04:04:08;7.45;;;5.03;;
30287;SDS011;17103;48.316;11.558;2022-08-18T04:06:39;5.13;;;4.63;;
30287;SDS011;17103;48.316;11.558;2022-08-18T04:09:13;5.82;;;4.75;;
30287;SDS011;17103;48.316;11.558;2022-08-18T04:11:40;5.75;;;4.30;;
30287;SDS011;17103;48.316;11.558;2022-08-18T04:14:20;5.20;;;4.70;;
30287;SDS011;17103;48.316;11.558;2022-08-18T04:16:48;4.60;;;4.20;;
30287;SDS011;17103;48.316;11.558;2022-08-18T04:19:15;5.57;;;4.40;;
30287;SDS011;17103;48.316;11.558;2022-08-18T04:21:42;5.05;;;4.28;;
30287;SDS011;17103;48.316;11.558;2022-08-18T04:24:09;4.50;;;4.03;;
30287;SDS011;17103;48.316;11.558;2022-08-18T04:26:37;5.85;;;5.07;;
30287;SDS011;17103;48.316;11.558;2022-08-18T04:29:06;5.60;;;4.45;;
30287;SDS011;17103;48.316;11.558;2022-08-18T04:31:32;5.82;;;4.60;;
30287;SDS011;17103;48.316;11.558;2022-08-18T04:33:59;6.65;;;4.00;;
30287;SDS011;17103;48.316;11.558;2022-08-18T04:36:25;5.70;;;4.40;;
30287;SDS011;17103;48.316;11.558;2022-08-18T04:38:52;4.28;;;3.92;;
30287;SDS011;17103;48.316;11.558;2022-08-18T04:41:19;7.35;;;4.88;;
30287;SDS011;17103;48.316;11.558;2022-08-18T04:43:48;4.82;;;4.43;;
30287;SDS011;17103;48.316;11.558;2022-08-18T04:46:16;6.32;;;5.72;;
30287;SDS011;17103;48.316;11.558;2022-08-18T04:48:42;5.53;;;4.82;;
30287;SDS011;17103;48.316;11.558;2022-08-18T04:51:15;6.05;;;4.68;;
30287;SDS011;17103;48.316;11.558;2022-08-18T04:53:44;4.93;;;4.47;;
30287;SDS011;17103;48.316;11.558;2022-08-18T04:58:54;6.75;;;4.80;;
30287;SDS011;17103;48.316;11.558;2022-08-18T05:01:29;5.43;;;4.68;;
30287;SDS011;17103;48.316;11.558;2022-08-18T05:03:59;5.85;;;5.00;;
30287;SDS011;17103;48.316;11.558;2022-08-18T05:06:25;6.22;;;4.75;;
30287;SDS011;17103;48.316;11.558;2022-08-18T05:08:53;4.63;;;4.20;;
30287;SDS011;17103;48.316;11.558;2022-08-18T05:11:21;5.38;;;4.43;;
30287;SDS011;17103;48.316;11.558;2022-08-18T05:13:52;5.35;;;4.47;;
30287;SDS011;17103;48.316;11.558;2022-08-18T05:16:20;6.25;;;4.68;;
30287;SDS011;17103;48.316;11.558;2022-08-18T05:18:46;5.50;;;4.80;;
30287;SDS011;17103;48.316;11.558;2022-08-18T05:21:13;5.57;;;4.97;;
30287;SDS011;17103;48.316;11.558;2022-08-18T05:23:43;5.28;;;4.78;;
30287;SDS011;17103;48.316;11.558;2022-08-18T05:26:12;4.82;;;4.32;;
30287;SDS011;17103;48.316;11.558;2022-08-18T05:28:40;7.10;;;5.22;;
30287;SDS011;17103;48.316;11.558;2022-08-18T05:31:11;6.55;;;5.85;;
30287;SDS011;17103;48.316;11.558;2022-08-18T05:33:39;7.93;;;5.82;;
30287;SDS011;17103;48.316;11.558;2022-08-18T05:36:10;6.10;;;5.10;;
30287;SDS011;17103;48.316;11.558;2022-08-18T05:41:36;7.60;;;5.88;;
30287;SDS011;17103;48.316;11.558;2022-08-18T05:44:11;6.22;;;5.63;;
30287;SDS011;17103;48.316;11.558;2022-08-18T05:46:42;6.68;;;5.20;;
30287;SDS011;17103;48.316;11.558;2022-08-18T05:49:12;5.63;;;4.90;;
30287;SDS011;17103;48.316;11.558;2022-08-18T05:51:44;5.72;;;5.03;;
30287;SDS011;17103;48.316;11.558;2022-08-18T05:54:13;5.53;;;5.03;;
30287;SDS011;17103;48.316;11.558;2022-08-18T05:57:18;5.32;;;4.82;;
30287;SDS011;17103;48.316;11.558;2022-08-18T05:59:46;8.80;;;5.65;;
30287;SDS011;17103;48.316;11.558;2022-08-18T06:10:07;6.32;;;5.20;;
30287;SDS011;17103;48.316;11.558;2022-08-18T06:12:42;7.82;;;5.78;;
30287;SDS011;17103;48.316;11.558;2022-08-18T06:15:31;6.30;;;5.47;;
30287;SDS011;17103;48.316;11.558;2022-08-18T06:26:44;5.50;;;5.00;;
30287;SDS011;17103;48.316;11.558;2022-08-18T06:35:54;5.78;;;4.85;;
30287;SDS011;17103;48.316;11.558;2022-08-18T06:44:00;5.70;;;5.00;;
30287;SDS011;17103;48.316;11.558;2022-08-18T06:46:51;5.15;;;4.65;;
30287;SDS011;17103;48.316;11.558;2022-08-18T06:52:19;6.93;;;5.82;;
30287;SDS011;17103;48.316;11.558;2022-08-18T06:54:46;5.85;;;5.18;;
30287;SDS011;17103;48.316;11.558;2022-08-18T06:57:24;7.10;;;6.40;;
30287;SDS011;17103;48.316;11.558;2022-08-18T06:59:58;6.63;;;5.65;;
30287;SDS011;17103;48.316;11.558;2022-08-18T07:02:38;6.25;;;5.63;;
30287;SDS011;17103;48.316;11.558;2022-08-18T07:07:43;7.80;;;6.47;;
30287;SDS011;17103;48.316;11.558;2022-08-18T07:12:41;8.00;;;6.10;;
30287;SDS011;17103;48.316;11.558;2022-08-18T07:15:22;8.18;;;7.35;;
30287;SDS011;17103;48.316;11.558;2022-08-18T07:17:49;8.10;;;6.32;;
30287;SDS011;17103;48.316;11.558;2022-08-18T07:20:20;6.10;;;5.50;;
30287;SDS011;17103;48.316;11.558;2022-08-18T07:22:53;7.15;;;6.45;;
30287;SDS011;17103;48.316;11.558;2022-08-18T07:25:27;7.93;;;6.57;;
30287;SDS011;17103;48.316;11.558;2022-08-18T07:28:02;7.75;;;6.90;;
30287;SDS011;17103;48.316;11.558;2022-08-18T07:30:34;7.20;;;5.22;;
30287;SDS011;17103;48.316;11.558;2022-08-18T07:36:07;7.10;;;6.40;;
30287;SDS011;17103;48.316;11.558;2022-08-18T07:38:52;7.93;;;7.18;;
30287;SDS011;17103;48.316;11.558;2022-08-18T07:43:55;6.43;;;5.80;;
30287;SDS011;17103;48.316;11.558;2022-08-18T07:49:20;7.28;;;6.53;;
30287;SDS011;17103;48.316;11.558;2022-08-18T07:54:46;8.68;;;6.38;;
30287;SDS011;17103;48.316;11.558;2022-08-18T08:14:28;8.57;;;7.53;;
30287;SDS011;17103;48.316;11.558;2022-08-18T08:20:07;8.85;;;7.70;;
30287;SDS011;17103;48.316;11.558;2022-08-18T08:31:13;9.18;;;7.75;;
30287;SDS011;17103;48.316;11.558;2022-08-18T08:33:50;9.63;;;7.07;;
30287;SDS011;17103;48.316;11.558;2022-08-18T08:36:24;5.32;;;4.78;;
30287;SDS011;17103;48.316;11.558;2022-08-18T08:38:56;7.47;;;6.25;;
30287;SDS011;17103;48.316;11.558;2022-08-18T08:41:31;6.95;;;5.90;;
30287;SDS011;17103;48.316;11.558;2022-08-18T08:44:11;8.10;;;7.25;;
30287;SDS011;17103;48.316;11.558;2022-08-18T08:47:03;5.82;;;5.22;;
30287;SDS011;17103;48.316;11.558;2022-08-18T08:57:21;8.15;;;7.35;;
30287;SDS011;17103;48.316;11.558;2022-08-18T08:59:53;8.25;;;6.95;;
30287;SDS011;17103;48.316;11.558;2022-08-18T09:02:39;8.23;;;7.43;;
30287;SDS011;17103;48.316;11.558;2022-08-18T09:05:16;7.38;;;6.60;;
30287;SDS011;17103;48.316;11.558;2022-08-18T09:16:48;7.78;;;6.50;;
30287;SDS011;17103;48.316;11.558;2022-08-18T09:22:18;7.05;;;5.43;;
30287;SDS011;17103;48.316;11.558;2022-08-18T09:24:55;8.25;;;6.80;;
30287;SDS011;17103;48.316;11.558;2022-08-18T09:30:02;7.07;;;5.95;;
30287;SDS011;17103;48.316;11.558;2022-08-18T09:40:10;6.15;;;5.55;;
30287;SDS011;17103;48.316;11.558;2022-08-18T09:43:12;6.53;;;5.93;;
30287;SDS011;17103;48.316;11.558;2022-08-18T09:46:04;6.38;;;5.13;;
30287;SDS011;17103;48.316;11.558;2022-08-18T09:48:35;6.40;;;5.70;;
30287;SDS011;17103;48.316;11.558;2022-08-18T09:54:05;7.38;;;5.78;;
30287;SDS011;17103;48.316;11.558;2022-08-18T10:02:00;6.97;;;6.05;;
30287;SDS011;17103;48.316;11.558;2022-08-18T10:12:51;7.15;;;6.45;;
30287;SDS011;17103;48.316;11.558;2022-08-18T10:15:47;5.95;;;5.35;;
30287;SDS011;17103;48.316;11.558;2022-08-18T10:21:06;6.47;;;5.73;;
30287;SDS011;17103;48.316;11.558;2022-08-18T10:23:45;7.32;;;6.63;;
30287;SDS011;17103;48.316;11.558;2022-08-18T10:29:09;6.78;;;6.13;;
30287;SDS011;17103;48.316;11.558;2022-08-18T10:34:36;4.90;;;4.50;;
30287;SDS011;17103;48.316;11.558;2022-08-18T10:42:19;7.47;;;6.10;;
30287;SDS011;17103;48.316;11.558;2022-08-18T10:45:07;6.70;;;6.00;;
30287;SDS011;17103;48.316;11.558;2022-08-18T10:47:39;6.22;;;5.10;;
30287;SDS011;17103;48.316;11.558;2022-08-18T10:50:17;5.88;;;5.28;;
30287;SDS011;17103;48.316;11.558;2022-08-18T10:52:59;6.03;;;4.40;;
30287;SDS011;17103;48.316;11.558;2022-08-18T10:55:45;5.32;;;4.63;;
30287;SDS011;17103;48.316;11.558;2022-08-18T11:04:01;4.60;;;4.18;;
30287;SDS011;17103;48.316;11.558;2022-08-18T11:06:48;7.28;;;6.03;;
30287;SDS011;17103;48.316;11.558;2022-08-18T11:09:22;5.60;;;4.82;;
30287;SDS011;17103;48.316;11.558;2022-08-18T11:11:54;5.93;;;4.57;;
30287;SDS011;17103;48.316;11.558;2022-08-18T11:14:36;5.25;;;4.78;;
30287;SDS011;17103;48.316;11.558;2022-08-18T11:17:16;5.55;;;4.97;;
30287;SDS011;17103;48.316;11.558;2022-08-18T11:22:30;5.22;;;4.72;;
30287;SDS011;17103;48.316;11.558;2022-08-18T11:24:58;4.82;;;4.25;;
30287;SDS011;17103;48.316;11.558;2022-08-18T11:27:26;4.85;;;4.32;;
30287;SDS011;17103;48.316;11.558;2022-08-18T11:29:53;5.32;;;4.80;;
30287;SDS011;17103;48.316;11.558;2022-08-18T11:32:40;5.43;;;4.93;;
30287;SDS011;17103;48.316;11.558;2022-08-18T11:35:56;5.68;;;5.07;;
30287;SDS011;17103;48.316;11.558;2022-08-18T11:38:56;4.85;;;4.20;;
30287;SDS011;17103;48.316;11.558;2022-08-18T11:41:26;4.07;;;3.67;;
30287;SDS011;17103;48.316;11.558;2022-08-18T11:43:56;5.15;;;4.65;;
30287;SDS011;17103;48.316;11.558;2022-08-18T11:46:46;5.05;;;4.50;;
30287;SDS011;17103;48.316;11.558;2022-08-18T11:49:18;5.18;;;4.65;;
30287;SDS011;17103;48.316;11.558;2022-08-18T11:52:14;5.68;;;4.40;;
30287;SDS011;17103;48.316;11.558;2022-08-18T11:54:51;5.47;;;4.97;;
30287;SDS011;17103;48.316;11.558;2022-08-18T12:03:42;5.10;;;4.07;;
30287;SDS011;17103;48.316;11.558;2022-08-18T12:06:48;4.47;;;3.83;;
30287;SDS011;17103;48.316;11.558;2022-08-18T12:12:45;5.22;;;4.53;;
30287;SDS011;17103;48.316;11.558;2022-08-18T12:18:02;5.45;;;4.43;;
30287;SDS011;17103;48.316;11.558;2022-08-18T12:20:31;7.43;;;5.28;;
30287;SDS011;17103;48.316;11.558;2022-08-18T12:23:00;5.97;;;3.75;;
30287;SDS011;17103;48.316;11.558;2022-08-18T12:25:27;5.10;;;3.92;;
30287;SDS011;17103;48.316;11.558;2022-08-18T12:27:56;4.38;;;4.07;;
30287;SDS011;17103;48.316;11.558;2022-08-18T12:30:35;6.97;;;4.15;;
30287;SDS011;17103;48.316;11.558;2022-08-18T12:36:08;4.28;;;3.88;;
30287;SDS011;17103;48.316;11.558;2022-08-18T12:38:39;7.30;;;4.55;;
30287;SDS011;17103;48.316;11.558;2022-08-18T12:41:41;5.32;;;4.88;;
30287;SDS011;17103;48.316;11.558;2022-08-18T12:44:07;4.38;;;3.97;;
30287;SDS011;17103;48.316;11.558;2022-08-18T12:49:29;4.77;;;4.07;;
30287;SDS011;17103;48.316;11.558;2022-08-18T12:52:04;4.15;;;3.72;;
30287;SDS011;17103;48.316;11.558;2022-08-18T12:55:06;5.22;;;4.50;;
30287;SDS011;17103;48.316;11.558;2022-08-18T12:57:46;4.28;;;3.88;;
30287;SDS011;17103;48.316;11.558;2022-08-18T13:00:14;4.35;;;3.97;;
30287;SDS011;17103;48.316;11.558;2022-08-18T13:02:46;4.47;;;4.07;;
30287;SDS011;17103;48.316;11.558;2022-08-18T13:05:12;6.53;;;4.47;;
30287;SDS011;17103;48.316;11.558;2022-08-18T13:07:41;4.72;;;4.10;;
30287;SDS011;17103;48.316;11.558;2022-08-18T13:10:09;4.88;;;4.47;;
30287;SDS011;17103;48.316;11.558;2022-08-18T13:12:34;5.15;;;4.65;;
30287;SDS011;17103;48.316;11.558;2022-08-18T13:15:00;4.53;;;4.13;;
30287;SDS011;17103;48.316;11.558;2022-08-18T13:17:26;5.78;;;4.50;;
30287;SDS011;17103;48.316;11.558;2022-08-18T13:19:52;4.50;;;4.10;;
30287;SDS011;17103;48.316;11.558;2022-08-18T13:22:18;5.82;;;4.65;;
30287;SDS011;17103;48.316;11.558;2022-08-18T13:24:44;5.10;;;4.60;;
30287;SDS011;17103;48.316;11.558;2022-08-18T13:27:10;5.32;;;4.22;;
30287;SDS011;17103;48.316;11.558;2022-08-18T13:29:36;4.28;;;3.78;;
30287;SDS011;17103;48.316;11.558;2022-08-18T13:32:02;5.30;;;4.80;;
30287;SDS011;17103;48.316;11.558;2022-08-18T13:34:35;4.93;;;4.43;;
30287;SDS011;17103;48.316;11.558;2022-08-18T13:37:04;4.57;;;4.15;;
30287;SDS011;17103;48.316;11.558;2022-08-18T13:39:29;4.43;;;4.05;;
30287;SDS011;17103;48.316;11.558;2022-08-18T13:41:55;5.47;;;3.97;;
30287;SDS011;17103;48.316;11.558;2022-08-18T13:44:21;4.95;;;3.88;;
30287;SDS011;17103;48.316;11.558;2022-08-18T13:46:47;4.70;;;4.25;;
30287;SDS011;17103;48.316;11.558;2022-08-18T13:49:19;5.03;;;4.53;;
30287;SDS011;17103;48.316;11.558;2022-08-18T13:51:46;4.85;;;4.43;;
30287;SDS011;17103;48.316;11.558;2022-08-18T13:54:19;5.43;;;4.20;;
30287;SDS011;17103;48.316;11.558;2022-08-18T13:56:49;4.55;;;4.07;;
30287;SDS011;17103;48.316;11.558;2022-08-18T13:59:16;4.60;;;4.15;;
30287;SDS011;17103;48.316;11.558;2022-08-18T14:01:42;4.53;;;4.13;;
30287;SDS011;17103;48.316;11.558;2022-08-18T14:04:11;5.00;;;4.50;;
30287;SDS011;17103;48.316;11.558;2022-08-18T14:06:43;5.50;;;4.68;;
30287;SDS011;17103;48.316;11.558;2022-08-18T14:09:09;6.20;;;4.43;;
30287;SDS011;17103;48.316;11.558;2022-08-18T14:11:41;4.57;;;4.18;;
30287;SDS011;17103;48.316;11.558;2022-08-18T14:14:06;5.28;;;4.15;;
30287;SDS011;17103;48.316;11.558;2022-08-18T14:16:32;4.75;;;4.25;;
30287;SDS011;17103;48.316;11.558;2022-08-18T14:18:59;5.15;;;4.32;;
30287;SDS011;17103;48.316;11.558;2022-08-18T14:21:49;4.40;;;4.00;;
30287;SDS011;17103;48.316;11.558;2022-08-18T14:24:39;4.75;;;4.20;;
30287;SDS011;17103;48.316;11.558;2022-08-18T14:27:28;4.55;;;4.15;;
30287;SDS011;17103;48.316;11.558;2022-08-18T14:29:56;4.40;;;4.00;;
30287;SDS011;17103;48.316;11.558;2022-08-18T14:32:23;4.50;;;4.07;;
30287;SDS011;17103;48.316;11.558;2022-08-18T14:34:51;5.03;;;4.00;;
30287;SDS011;17103;48.316;11.558;2022-08-18T14:40:47;6.50;;;4.25;;
30287;SDS011;17103;48.316;11.558;2022-08-18T14:43:18;4.15;;;3.75;;
30287;SDS011;17103;48.316;11.558;2022-08-18T14:45:47;4.72;;;4.10;;
30287;SDS011;17103;48.316;11.558;2022-08-18T14:48:19;5.97;;;3.80;;
30287;SDS011;17103;48.316;11.558;2022-08-18T14:50:51;6.88;;;4.20;;
30287;SDS011;17103;48.316;11.558;2022-08-18T14:53:25;4.80;;;3.63;;
30287;SDS011;17103;48.316;11.558;2022-08-18T14:56:03;4.47;;;3.95;;
30287;SDS011;17103;48.316;11.558;2022-08-18T14:58:36;3.67;;;3.20;;
30287;SDS011;17103;48.316;11.558;2022-08-18T15:01:05;4.53;;;3.70;;
30287;SDS011;17103;48.316;11.558;2022-08-18T15:03:34;6.45;;;3.50;;
30287;SDS011;17103;48.316;11.558;2022-08-18T15:06:06;6.28;;;3.88;;
30287;SDS011;17103;48.316;11.558;2022-08-18T15:08:35;4.47;;;3.70;;
30287;SDS011;17103;48.316;11.558;2022-08-18T15:11:06;4.03;;;3.70;;
30287;SDS011;17103;48.316;11.558;2022-08-18T15:13:40;4.30;;;3.65;;
30287;SDS011;17103;48.316;11.558;2022-08-18T15:16:11;3.92;;;3.50;;
30287;SDS011;17103;48.316;11.558;2022-08-18T15:18:40;4.20;;;3.80;;
30287;SDS011;17103;48.316;11.558;2022-08-18T15:24:38;4.07;;;3.40;;
30287;SDS011;17103;48.316;11.558;2022-08-18T15:27:35;4.30;;;3.90;;
30287;SDS011;17103;48.316;11.558;2022-08-18T15:30:12;4.65;;;3.83;;
30287;SDS011;17103;48.316;11.558;2022-08-18T15:32:47;4.75;;;4.32;;
30287;SDS011;17103;48.316;11.558;2022-08-18T15:35:19;5.05;;;4.38;;
30287;SDS011;17103;48.316;11.558;2022-08-18T15:37:47;5.20;;;3.92;;
30287;SDS011;17103;48.316;11.558;2022-08-18T15:40:14;4.40;;;4.00;;
30287;SDS011;17103;48.316;11.558;2022-08-18T15:42:46;5.20;;;4.20;;
30287;SDS011;17103;48.316;11.558;2022-08-18T15:47:44;4.93;;;4.03;;
30287;SDS011;17103;48.316;11.558;2022-08-18T15:50:12;5.10;;;4.13;;
30287;SDS011;17103;48.316;11.558;2022-08-18T15:52:51;4.63;;;4.22;;
30287;SDS011;17103;48.316;11.558;2022-08-18T15:55:19;6.05;;;4.53;;
30287;SDS011;17103;48.316;11.558;2022-08-18T15:57:47;6.68;;;4.32;;
30287;SDS011;17103;48.316;11.558;2022-08-18T16:00:23;4.60;;;4.03;;
30287;SDS011;17103;48.316;11.558;2022-08-18T16:02:57;5.15;;;4.65;;
30287;SDS011;17103;48.316;11.558;2022-08-18T16:05:29;4.18;;;3.78;;
30287;SDS011;17103;48.316;11.558;2022-08-18T16:07:57;4.93;;;4.30;;
30287;SDS011;17103;48.316;11.558;2022-08-18T16:10:37;5.20;;;4.70;;
30287;SDS011;17103;48.316;11.558;2022-08-18T16:13:32;5.80;;;4.93;;
30287;SDS011;17103;48.316;11.558;2022-08-18T16:16:16;4.35;;;3.95;;
30287;SDS011;17103;48.316;11.558;2022-08-18T16:18:48;4.22;;;3.83;;
30287;SDS011;17103;48.316;11.558;2022-08-18T16:21:19;4.20;;;3.80;;
30287;SDS011;17103;48.316;11.558;2022-08-18T16:23:54;8.15;;;4.65;;
30287;SDS011;17103;48.316;11.558;2022-08-18T16:26:29;5.07;;;4.20;;
30287;SDS011;17103;48.316;11.558;2022-08-18T16:28:55;5.03;;;4.03;;
30287;SDS011;17103;48.316;11.558;2022-08-18T16:31:21;5.72;;;4.22;;
30287;SDS011;17103;48.316;11.558;2022-08-18T16:33:54;3.85;;;3.55;;
30287;SDS011;17103;48.316;11.558;2022-08-18T16:36:26;4.57;;;4.18;;
30287;SDS011;17103;48.316;11.558;2022-08-18T16:38:58;9.20;;;4.63;;
30287;SDS011;17103;48.316;11.558;2022-08-18T16:41:26;3.95;;;3.65;;
30287;SDS011;17103;48.316;11.558;2022-08-18T16:43:52;4.78;;;4.38;;
30287;SDS011;17103;48.316;11.558;2022-08-18T16:46:22;5.80;;;4.10;;
30287;SDS011;17103;48.316;11.558;2022-08-18T16:48:50;7.55;;;4.53;;
30287;SDS011;17103;48.316;11.558;2022-08-18T16:51:19;5.60;;;5.00;;
30287;SDS011;17103;48.316;11.558;2022-08-18T16:53:48;4.95;;;4.43;;
30287;SDS011;17103;48.316;11.558;2022-08-18T16:56:21;5.68;;;4.15;;
30287;SDS011;17103;48.316;11.558;2022-08-18T16:59:02;4.78;;;4.10;;
30287;SDS011;17103;48.316;11.558;2022-08-18T17:01:49;4.70;;;4.20;;
30287;SDS011;17103;48.316;11.558;2022-08-18T17:04:34;12.93;;;4.75;;
30287;SDS011;17103;48.316;11.558;2022-08-18T17:07:00;5.88;;;5.05;;
30287;SDS011;17103;48.316;11.558;2022-08-18T17:09:33;5.65;;;4.65;;
30287;SDS011;17103;48.316;11.558;2022-08-18T17:11:59;9.27;;;5.15;;
30287;SDS011;17103;48.316;11.558;2022-08-18T17:14:26;6.43;;;4.47;;
30287;SDS011;17103;48.316;11.558;2022-08-18T17:16:54;5.30;;;4.43;;
30287;SDS011;17103;48.316;11.558;2022-08-18T17:19:22;7.30;;;4.65;;
30287;SDS011;17103;48.316;11.558;2022-08-18T17:21:51;5.40;;;4.90;;
30287;SDS011;17103;48.316;11.558;2022-08-18T17:24:18;5.72;;;5.22;;
30287;SDS011;17103;48.316;11.558;2022-08-18T17:29:19;5.65;;;4.95;;
30287;SDS011;17103;48.316;11.558;2022-08-18T17:31:52;5.57;;;5.07;;
30287;SDS011;17103;48.316;11.558;2022-08-18T17:34:22;5.43;;;4.65;;
30287;SDS011;17103;48.316;11.558;2022-08-18T17:36:57;7.15;;;5.38;;
30287;SDS011;17103;48.316;11.558;2022-08-18T17:42:28;7.88;;;5.05;;
30287;SDS011;17103;48.316;11.558;2022-08-18T17:45:00;8.18;;;5.57;;
30287;SDS011;17103;48.316;11.558;2022-08-18T17:48:15;10.05;;;6.22;;
30287;SDS011;17103;48.316;11.558;2022-08-18T17:53:37;7.30;;;6.17;;
30287;SDS011;17103;48.316;11.558;2022-08-18T17:56:09;7.85;;;7.05;;
30287;SDS011;17103;48.316;11.558;2022-08-18T18:01:32;8.07;;;6.50;;
30287;SDS011;17103;48.316;11.558;2022-08-18T18:03:59;7.38;;;6.57;;
30287;SDS011;17103;48.316;11.558;2022-08-18T18:09:00;7.80;;;6.40;;
30287;SDS011;17103;48.316;11.558;2022-08-18T18:11:32;4.10;;;3.75;;
30287;SDS011;17103;48.316;11.558;2022-08-18T18:22:26;2.95;;;2.63;;
30287;SDS011;17103;48.316;11.558;2022-08-18T18:24:55;2.92;;;2.38;;
30287;SDS011;17103;48.316;11.558;2022-08-18T18:30:05;2.38;;;2.17;;
30287;SDS011;17103;48.316;11.558;2022-08-18T18:35:16;1.60;;;1.45;;